Time;durP1;ratioP1;P1;durP2;ratioP2;P2;SDS_P1;SDS_P2;PMS_P1;PMS_P2;Temp;Humidity;BMP_temperature;BMP_pressure;BME280_temperature;BME280_humidity;BME280_pressure;Samples;Min_cycle;Max_cycle;Signal;HPM_P1;HPM_P2
2021/09/21 00:14:46;;;;;;;23.13;9.33;;;;;;;8.46;100.00;101010.34;713924;1203;114969;-74
2021/09/21 00:29:49;;;;;;;14.40;7.35;;;;;;;8.39;100.00;101014.26;713868;1199;114302;-75
2021/09/21 00:45:05;;;;;;;25.17;10.13;;;;;;;8.25;100.00;101016.98;713992;1199;115425;-73
2021/09/21 01:00:09;;;;;;;23.55;9.88;;;;;;;8.32;100.00;101031.31;713843;1199;113657;-74
2021/09/21 01:15:13;;;;;;;16.03;8.78;;;;;;;8.28;100.00;101032.45;713844;1203;115132;-73
2021/09/21 01:30:16;;;;;;;18.88;9.08;;;;;;;8.24;100.00;101018.75;714305;1199;113947;-74
2021/09/21 01:45:20;;;;;;;18.75;9.10;;;;;;;7.96;100.00;101020.56;713822;1202;114680;-74
2021/09/21 02:00:22;;;;;;;20.73;11.57;;;;;;;7.85;100.00;101017.80;713913;1199;115917;-73
2021/09/21 02:15:24;;;;;;;18.77;9.30;;;;;;;7.54;99.40;101017.18;713830;1199;114646;-74
2021/09/21 02:30:27;;;;;;;18.68;11.65;;;;;;;7.71;100.00;101020.47;713858;1199;114264;-73
2021/09/21 02:45:29;;;;;;;12.53;7.17;;;;;;;7.72;100.00;101036.06;713849;1199;115830;-74
2021/09/21 03:00:31;;;;;;;13.33;6.95;;;;;;;6.11;100.00;101056.16;713743;1199;113957;-73
2021/09/21 03:30:54;;;;;;;13.23;7.27;;;;;;;6.21;100.00;101063.44;713691;1199;115407;-73
2021/09/21 03:45:56;;;;;;;10.80;6.78;;;;;;;6.38;100.00;101072.90;713913;1199;114414;-73
2021/09/21 04:00:58;;;;;;;22.85;13.05;;;;;;;6.72;100.00;101084.80;714551;1200;114357;-72
2021/09/21 04:16:01;;;;;;;13.65;6.75;;;;;;;6.82;100.00;101090.30;714749;1199;114483;-71
2021/09/21 04:31:10;;;;;;;17.35;9.75;;;;;;;6.93;100.00;101066.20;714023;1199;114479;-71
2021/09/21 04:46:12;;;;;;;15.07;8.93;;;;;;;7.00;100.00;101078.75;714080;1199;114006;-69
2021/09/21 05:01:14;;;;;;;14.93;8.75;;;;;;;7.05;100.00;101057.62;714901;1203;114038;-72
2021/09/21 05:16:17;;;;;;;13.53;7.35;;;;;;;7.14;100.00;101071.88;714173;1184;113885;-84
2021/09/21 05:31:19;;;;;;;18.68;9.33;;;;;;;7.38;100.00;101092.16;716187;1199;113991;-81
2021/09/21 05:46:21;;;;;;;14.78;7.48;;;;;;;7.71;100.00;101106.66;716057;1202;114619;-82
2021/09/21 06:01:25;;;;;;;19.43;9.95;;;;;;;7.72;100.00;101109.20;716067;1199;114350;-83
2021/09/21 06:16:28;;;;;;;14.40;8.73;;;;;;;7.96;100.00;101124.26;717665;1200;113512;-83
2021/09/21 06:31:31;;;;;;;13.58;8.60;;;;;;;8.69;100.00;101146.56;716583;1198;115086;-84
2021/09/21 06:46:35;;;;;;;18.13;9.95;;;;;;;9.47;100.00;101150.04;714224;1183;114060;-76
2021/09/21 07:01:38;;;;;;;23.47;11.43;;;;;;;10.61;100.00;101177.77;714144;1200;115658;-75
2021/09/21 07:16:42;;;;;;;13.73;7.48;;;;;;;10.60;100.00;101182.20;714214;1199;115517;-74
2021/09/21 07:31:45;;;;;;;18.13;9.53;;;;;;;10.84;100.00;101181.32;714392;1199;115987;-83
2021/09/21 07:46:48;;;;;;;11.20;6.18;;;;;;;11.34;100.00;101178.43;715784;1177;115228;-84
2021/09/21 08:01:50;;;;;;;21.20;9.93;;;;;;;12.87;100.00;101176.77;716416;1200;114241;-85
2021/09/21 08:16:53;;;;;;;16.65;6.10;;;;;;;13.68;100.00;101154.98;714996;1203;115583;-82
2021/09/21 08:31:56;;;;;;;12.23;6.00;;;;;;;14.54;100.00;101157.02;714915;1177;115039;-83
2021/09/21 08:46:59;;;;;;;8.13;4.88;;;;;;;15.23;96.06;101167.48;727462;1177;114369;-83
2021/09/21 09:19:13;;;;;;;25.60;8.30;;;;;;;16.98;85.18;101159.38;714396;1203;114278;-87
2021/09/21 09:34:21;;;;;;;8.10;4.60;;;;;;;17.56;79.71;101141.11;714179;1177;114286;-85
2021/09/21 09:49:25;;;;;;;6.40;2.60;;;;;;;16.51;73.57;101157.02;714050;1200;113980;-80
2021/09/21 10:04:29;;;;;;;5.15;3.08;;;;;;;16.09;72.39;101151.36;714242;1178;115279;-79
2021/09/21 10:19:35;;;;;;;6.55;3.08;;;;;;;16.38;72.08;101152.95;713814;1203;115724;-79
2021/09/21 10:34:44;;;;;;;4.35;2.50;;;;;;;17.11;69.04;101143.88;713966;1200;114048;-80
2021/09/21 10:49:48;;;;;;;4.27;2.87;;;;;;;17.02;64.45;101171.33;714242;1200;115042;-77
2021/09/21 11:04:51;;;;;;;9.05;2.48;;;;;;;18.43;61.12;101154.08;714735;1199;113987;-78
2021/09/21 11:19:57;;;;;;;3.50;1.90;;;;;;;17.96;60.45;101142.23;714501;1200;114012;-75
2021/09/21 11:35:12;;;;;;;3.03;1.93;;;;;;;17.91;59.84;101147.19;714800;1203;113822;-76
2021/09/21 11:50:19;;;;;;;4.23;2.30;;;;;;;16.76;60.79;101152.73;715086;1187;114137;-76
2021/09/21 12:05:21;;;;;;;3.83;2.63;;;;;;;15.61;63.66;101155.94;714902;1174;115212;-74
2021/09/21 12:20:28;;;;;;;6.37;2.63;;;;;;;15.33;66.50;101149.79;714564;1199;115562;-74
2021/09/21 12:35:33;;;;;;;4.93;3.03;;;;;;;15.66;67.57;101133.50;714538;1199;115568;-73
2021/09/21 12:50:41;;;;;;;6.38;2.40;;;;;;;16.24;67.97;101134.95;714353;1199;114473;-75
2021/09/21 13:05:45;;;;;;;9.47;4.73;;;;;;;16.27;67.69;101137.28;714170;1202;115559;-76
2021/09/21 13:20:49;;;;;;;42.28;22.00;;;;;;;15.69;67.76;101126.12;714147;1199;114909;-74
2021/09/21 13:35:53;;;;;;;28.43;14.00;;;;;;;15.40;68.06;101121.81;714900;1199;115424;-74
2021/09/21 13:50:56;;;;;;;9.80;6.00;;;;;;;15.10;68.23;101114.98;714995;1174;114228;-77
2021/09/21 14:06:01;;;;;;;40.30;18.05;;;;;;;14.90;70.27;101103.63;714339;1198;114689;-74
2021/09/21 14:21:04;;;;;;;6.13;4.70;;;;;;;14.59;70.43;101117.83;714481;1199;114539;-74
2021/09/21 14:36:07;;;;;;;23.03;11.63;;;;;;;14.28;71.66;101114.55;714257;1203;113943;-74
2021/09/21 14:51:10;;;;;;;20.63;14.30;;;;;;;14.26;73.90;101122.58;714528;1203;114876;-74
2021/09/21 15:06:13;;;;;;;14.28;8.20;;;;;;;14.12;74.54;101115.93;714431;1200;114699;-73
2021/09/21 15:21:17;;;;;;;25.50;14.43;;;;;;;13.90;75.47;101113.55;714255;1203;114623;-73
2021/09/21 15:36:19;;;;;;;53.78;28.65;;;;;;;13.71;76.32;101120.46;714271;1200;114193;-72
2021/09/21 15:51:23;;;;;;;131.50;66.77;;;;;;;13.46;78.66;101122.61;714151;1199;114416;-72
2021/09/21 16:06:25;;;;;;;64.65;34.68;;;;;;;13.20;81.00;101126.64;714384;1190;114525;-78
2021/09/21 16:21:33;;;;;;;36.37;20.33;;;;;;;13.07;82.86;101135.57;714646;1200;114303;-73
2021/09/21 16:36:37;;;;;;;42.55;22.10;;;;;;;12.80;86.40;101130.83;714466;1199;114951;-72
2021/09/21 16:51:39;;;;;;;26.33;16.60;;;;;;;12.55;88.02;101148.70;714280;1199;114454;-73
2021/09/21 17:06:42;;;;;;;37.68;22.10;;;;;;;12.10;93.68;101157.59;714310;1202;115259;-73
2021/09/21 17:21:44;;;;;;;30.38;16.18;;;;;;;11.82;96.91;101146.64;714209;1200;115179;-74
2021/09/21 17:36:47;;;;;;;60.13;34.45;;;;;;;11.32;100.00;101138.30;714383;1199;115924;-73
2021/09/21 17:51:51;;;;;;;35.05;18.53;;;;;;;11.08;100.00;101148.91;714536;1190;114548;-75
2021/09/21 18:06:54;;;;;;;28.03;16.90;;;;;;;10.91;100.00;101145.77;714143;1177;114636;-73
2021/09/21 18:22:16;;;;;;;20.63;12.87;;;;;;;10.80;100.00;101138.71;714542;1175;115237;-74
2021/09/21 18:37:20;;;;;;;22.48;13.10;;;;;;;10.84;100.00;101144.57;714626;1200;115671;-74
2021/09/21 18:52:23;;;;;;;18.93;13.27;;;;;;;10.93;100.00;101149.13;714596;1175;114494;-76
2021/09/21 19:07:26;;;;;;;24.93;12.78;;;;;;;10.72;100.00;101135.84;714378;1203;114528;-72
2021/09/21 19:22:29;;;;;;;20.10;12.05;;;;;;;10.62;100.00;101125.20;715365;1199;115682;-73
2021/09/21 19:37:31;;;;;;;21.38;11.65;;;;;;;10.63;100.00;101131.28;714684;1200;114842;-72
2021/09/21 19:52:33;;;;;;;14.63;8.48;;;;;;;10.76;100.00;101120.70;714679;1203;115482;-74
2021/09/21 20:07:36;;;;;;;18.45;10.00;;;;;;;10.64;100.00;101127.70;714725;1200;115160;-73
2021/09/21 20:22:39;;;;;;;16.73;9.73;;;;;;;10.73;100.00;101113.89;714725;1200;116044;-72
2021/09/21 20:52:49;;;;;;;17.18;9.95;;;;;;;10.77;100.00;101106.64;715067;1199;116270;-73
2021/09/21 21:07:52;;;;;;;22.98;12.68;;;;;;;10.80;100.00;101109.84;714825;1175;114280;-71
2021/09/21 21:22:55;;;;;;;21.23;11.43;;;;;;;10.89;100.00;101110.94;714833;1199;115421;-72
2021/09/21 21:37:58;;;;;;;28.77;13.73;;;;;;;10.81;100.00;101106.27;714658;1175;114619;-72
2021/09/21 21:53:01;;;;;;;22.58;11.95;;;;;;;10.96;100.00;101113.93;714738;1199;114974;-72
2021/09/21 22:08:03;;;;;;;21.30;11.40;;;;;;;10.92;100.00;101097.57;714595;1199;115622;-73
2021/09/21 22:23:06;;;;;;;18.00;9.35;;;;;;;10.86;100.00;101089.33;714490;1199;115084;-73
2021/09/21 22:38:09;;;;;;;13.20;7.90;;;;;;;10.48;100.00;101080.80;714602;1200;114432;-73
2021/09/21 22:53:11;;;;;;;12.98;7.20;;;;;;;10.48;100.00;101060.64;715230;1200;115584;-72
2021/09/21 23:08:13;;;;;;;14.65;8.48;;;;;;;10.58;100.00;101052.89;715603;1177;114455;-72
2021/09/21 23:23:16;;;;;;;12.23;7.75;;;;;;;10.60;100.00;101056.25;714471;1199;114558;-72
2021/09/21 23:38:18;;;;;;;16.40;8.28;;;;;;;10.48;100.00;101068.51;714592;1199;115487;-72
2021/09/21 23:53:20;;;;;;;16.35;7.75;;;;;;;10.59;100.00;101075.56;715550;1202;115579;-72
